createdAt,value
2022-08-26T00:02:04.948Z,15.10
2022-08-26T00:04:52.265Z,15.35
2022-08-26T00:07:39.927Z,16.90
2022-08-26T00:10:30.902Z,16.58
2022-08-26T00:13:19.531Z,18.98
2022-08-26T00:16:08.035Z,19.27
2022-08-26T00:18:59.213Z,19.58
2022-08-26T00:21:48.706Z,17.80
2022-08-26T00:24:36.889Z,20.63
2022-08-26T00:27:25.112Z,20.10
2022-08-26T00:30:22.747Z,20.75
2022-08-26T00:33:11.835Z,19.77
2022-08-26T00:35:59.197Z,19.10
2022-08-26T00:38:46.552Z,17.67
2022-08-26T00:41:35.209Z,24.08
2022-08-26T00:44:23.074Z,26.63
2022-08-26T00:47:22.564Z,27.70
2022-08-26T00:50:13.786Z,29.58
2022-08-26T00:53:21.350Z,31.23
2022-08-26T00:56:29.563Z,25.77
2022-08-26T00:59:17.832Z,34.60
2022-08-26T01:02:05.331Z,32.80
2022-08-26T01:04:56.419Z,33.17
2022-08-26T01:07:44.509Z,36.53
2022-08-26T01:10:31.854Z,38.50
2022-08-26T01:13:20.162Z,39.10
2022-08-26T01:16:12.690Z,41.38
2022-08-26T01:19:15.690Z,40.28
2022-08-26T01:22:10.212Z,43.13
2022-08-26T01:25:03.565Z,49.13
2022-08-26T01:27:52.069Z,50.15
2022-08-26T01:30:40.740Z,52.15
2022-08-26T01:33:52.380Z,56.13
2022-08-26T01:36:40.588Z,53.05
2022-08-26T01:39:32.173Z,54.35
2022-08-26T01:42:22.318Z,55.08
2022-08-26T01:45:15.306Z,55.47
2022-08-26T01:48:08.907Z,56.63
2022-08-26T01:50:58.456Z,58.38
2022-08-26T01:53:46.508Z,62.15
2022-08-26T01:56:36.475Z,61.15
2022-08-26T01:59:25.016Z,56.88
2022-08-26T02:02:12.976Z,59.45
2022-08-26T02:05:05.818Z,60.10
2022-08-26T02:07:53.364Z,56.88
2022-08-26T02:10:41.147Z,57.97
2022-08-26T02:16:21.992Z,57.17
2022-08-26T02:19:16.901Z,56.55
2022-08-26T02:22:08.293Z,54.65
2022-08-26T02:24:58.929Z,54.08
2022-08-26T02:27:47.585Z,52.63
2022-08-26T02:30:34.992Z,55.30
2022-08-26T02:33:23.072Z,54.72
2022-08-26T02:36:10.493Z,53.72
2022-08-26T02:38:59.470Z,57.42
2022-08-26T02:41:46.856Z,49.50
2022-08-26T02:44:35.699Z,54.38
2022-08-26T02:47:24.867Z,52.08
2022-08-26T02:50:12.305Z,51.40
2022-08-26T02:52:59.597Z,55.35
2022-08-26T02:55:49.411Z,54.20
2022-08-26T02:58:37.248Z,52.72
2022-08-26T03:01:35.373Z,48.70
2022-08-26T03:04:22.744Z,48.20
2022-08-26T03:07:13.260Z,56.47
2022-08-26T03:10:00.765Z,52.50
2022-08-26T03:12:48.266Z,48.88
2022-08-26T03:15:35.545Z,58.03
2022-08-26T03:18:24.596Z,51.40
2022-08-26T03:21:17.793Z,52.72
2022-08-26T03:24:05.889Z,53.70
2022-08-26T03:26:53.313Z,53.10
2022-08-26T03:29:59.612Z,51.30
2022-08-26T03:32:46.853Z,59.83
2022-08-26T03:35:34.961Z,54.00
2022-08-26T03:38:26.692Z,52.28
2022-08-26T03:41:14.092Z,52.03
2022-08-26T03:44:02.410Z,55.47
2022-08-26T03:46:50.850Z,56.22
2022-08-26T03:49:38.371Z,55.45
2022-08-26T03:52:26.594Z,52.17
2022-08-26T03:55:16.441Z,55.65
2022-08-26T03:58:05.006Z,59.20
2022-08-26T04:00:55.557Z,51.00
2022-08-26T04:04:00.020Z,53.70
2022-08-26T04:06:48.049Z,58.88
2022-08-26T04:09:35.479Z,56.85
2022-08-26T04:12:23.632Z,57.00
2022-08-26T04:15:15.110Z,60.72
2022-08-26T04:18:02.371Z,52.53
2022-08-26T04:20:50.526Z,52.65
2022-08-26T04:23:47.560Z,55.00
2022-08-26T04:26:39.554Z,52.92
2022-08-26T04:29:30.189Z,48.92
2022-08-26T04:32:17.499Z,55.75
2022-08-26T04:35:05.551Z,50.83
2022-08-26T04:37:53.529Z,49.80
2022-08-26T04:40:46.695Z,53.33
2022-08-26T04:43:34.286Z,51.17
2022-08-26T04:46:24.350Z,53.55
2022-08-26T04:49:12.718Z,52.83
2022-08-26T04:52:00.026Z,49.15
2022-08-26T04:54:47.308Z,46.90
2022-08-26T04:57:35.318Z,46.08
2022-08-26T05:00:23.096Z,44.92
2022-08-26T05:03:10.765Z,44.08
2022-08-26T05:05:58.582Z,46.97
2022-08-26T05:08:46.667Z,47.33
2022-08-26T05:11:34.055Z,46.50
2022-08-26T05:14:23.245Z,46.65
2022-08-26T05:17:10.660Z,40.53
2022-08-26T05:20:02.517Z,42.97
2022-08-26T05:22:51.287Z,46.30
2022-08-26T05:25:41.835Z,41.00
2022-08-26T05:28:29.928Z,39.72
2022-08-26T05:31:19.910Z,39.70
2022-08-26T05:34:07.445Z,37.08
2022-08-26T05:36:55.918Z,38.37
2022-08-26T05:39:43.561Z,37.30
2022-08-26T05:42:38.562Z,37.67
2022-08-26T05:45:26.480Z,31.80
2022-08-26T05:48:16.872Z,34.03
2022-08-26T05:51:08.480Z,35.40
2022-08-26T05:53:56.249Z,30.40
2022-08-26T05:56:43.497Z,32.15
2022-08-26T05:59:33.859Z,32.97
2022-08-26T06:02:24.781Z,32.72
2022-08-26T06:05:13.104Z,26.03
2022-08-26T06:08:14.108Z,32.42
2022-08-26T06:11:05.553Z,27.52
2022-08-26T06:14:03.057Z,30.30
2022-08-26T06:16:51.376Z,25.47
2022-08-26T06:19:38.666Z,28.65
2022-08-26T06:22:47.262Z,31.70
2022-08-26T06:25:38.513Z,29.02
2022-08-26T06:28:26.573Z,27.45
2022-08-26T06:31:15.303Z,29.10
2022-08-26T06:34:08.593Z,30.23
2022-08-26T06:37:06.379Z,25.35
2022-08-26T06:39:53.917Z,30.75
2022-08-26T06:42:41.257Z,28.27
2022-08-26T06:45:28.558Z,26.58
2022-08-26T06:48:18.957Z,25.23
2022-08-26T06:51:15.228Z,26.75
2022-08-26T06:54:04.536Z,30.88
2022-08-26T06:56:52.249Z,30.63
2022-08-26T06:59:39.515Z,25.65
2022-08-26T07:02:28.597Z,24.60
2022-08-26T07:05:16.176Z,23.10
2022-08-26T07:08:03.740Z,26.90
2022-08-26T07:10:51.142Z,23.98
2022-08-26T07:13:43.103Z,27.45
2022-08-26T07:16:30.685Z,23.13
2022-08-26T07:19:30.430Z,22.17
2022-08-26T07:22:18.709Z,24.83
2022-08-26T07:25:08.639Z,24.30
2022-08-26T07:27:55.904Z,27.92
2022-08-26T07:30:43.406Z,19.33
2022-08-26T07:33:30.736Z,24.38
2022-08-26T07:36:19.132Z,26.50
2022-08-26T07:39:06.796Z,19.48
2022-08-26T07:41:54.277Z,23.65
2022-08-26T07:44:43.559Z,21.10
2022-08-26T07:47:31.004Z,25.70
2022-08-26T07:50:18.339Z,21.55
2022-08-26T07:53:05.711Z,21.15
2022-08-26T07:55:56.154Z,22.02
2022-08-26T07:58:45.743Z,22.67
2022-08-26T08:01:35.527Z,29.23
2022-08-26T08:04:27.069Z,23.75
2022-08-26T08:07:14.610Z,26.17
2022-08-26T08:10:04.562Z,25.23
2022-08-26T08:12:57.515Z,29.98
2022-08-26T08:15:46.141Z,26.67
2022-08-26T08:18:33.550Z,30.80
2022-08-26T08:21:21.760Z,30.38
2022-08-26T08:24:11.560Z,34.00
2022-08-26T08:27:00.432Z,37.58
2022-08-26T08:29:47.862Z,37.20
2022-08-26T08:32:39.883Z,33.22
2022-08-26T08:35:27.405Z,40.20
2022-08-26T08:38:15.473Z,42.28
2022-08-26T08:41:05.602Z,48.47
2022-08-26T08:43:53.348Z,46.30
2022-08-26T08:46:42.819Z,40.05
2022-08-26T08:49:32.160Z,37.85
2022-08-26T08:52:35.060Z,47.47
2022-08-26T08:55:30.731Z,36.75
2022-08-26T08:58:21.777Z,32.90
2022-08-26T09:01:17.437Z,34.97
2022-08-26T09:04:17.280Z,38.95
2022-08-26T09:07:08.770Z,33.20
2022-08-26T09:10:00.888Z,30.92
2022-08-26T09:12:49.300Z,30.80
2022-08-26T09:16:01.608Z,29.55
2022-08-26T09:18:48.877Z,27.40
2022-08-26T09:21:37.388Z,27.98
2022-08-26T09:24:28.402Z,31.95
2022-08-26T09:27:41.917Z,33.13
2022-08-26T09:30:33.153Z,25.15
2022-08-26T09:33:28.393Z,28.90
2022-08-26T09:36:15.673Z,26.88
2022-08-26T09:39:04.418Z,24.77
2022-08-26T09:42:11.795Z,23.45
2022-08-26T09:45:03.485Z,25.38
2022-08-26T09:47:51.203Z,25.80
2022-08-26T09:50:51.278Z,22.20
2022-08-26T09:53:52.387Z,20.50
2022-08-26T09:56:40.147Z,22.20
2022-08-26T09:59:30.753Z,23.63
2022-08-26T10:02:29.702Z,21.63
2022-08-26T10:05:29.658Z,23.00
2022-08-26T10:08:38.471Z,18.20
2022-08-26T10:11:42.447Z,18.95
2022-08-26T10:17:41.309Z,20.27
2022-08-26T10:20:37.941Z,18.33
2022-08-26T10:23:32.654Z,23.77
2022-08-26T10:26:41.274Z,19.13
2022-08-26T10:29:39.166Z,17.92
2022-08-26T10:32:35.185Z,17.15
2022-08-26T10:35:26.905Z,18.83
2022-08-26T10:38:18.390Z,17.33
2022-08-26T10:41:15.853Z,18.80
2022-08-26T10:44:08.365Z,20.20
2022-08-26T10:47:09.022Z,21.50
2022-08-26T10:53:13.853Z,15.27
2022-08-26T10:56:01.975Z,21.02
2022-08-26T10:59:26.372Z,18.92
2022-08-26T11:02:39.668Z,19.10
2022-08-26T11:05:26.925Z,16.65
2022-08-26T11:08:20.846Z,14.20
2022-08-26T11:11:08.294Z,19.30
2022-08-26T11:14:05.494Z,14.82
2022-08-26T11:16:56.833Z,16.60
2022-08-26T11:20:09.163Z,15.30
2022-08-26T11:23:13.006Z,17.27
2022-08-26T11:26:35.383Z,13.93
2022-08-26T11:30:15.685Z,13.13
2022-08-26T11:33:07.083Z,10.80
2022-08-26T11:35:54.941Z,13.93
2022-08-26T11:38:42.641Z,11.80
2022-08-26T11:41:31.245Z,18.55
2022-08-26T11:44:26.173Z,15.48
2022-08-26T11:47:16.337Z,12.98
2022-08-26T11:50:12.509Z,13.75
2022-08-26T11:53:06.280Z,14.80
2022-08-26T11:55:56.908Z,14.55
2022-08-26T11:58:47.666Z,15.15
2022-08-26T12:04:30.295Z,14.48
2022-08-26T12:07:24.410Z,15.05
2022-08-26T12:10:26.677Z,14.82
2022-08-26T12:13:23.476Z,14.52
2022-08-26T12:16:12.454Z,13.95
2022-08-26T12:19:00.085Z,13.77
2022-08-26T12:21:48.864Z,15.15
2022-08-26T12:24:42.252Z,15.83
2022-08-26T12:27:37.174Z,14.18
2022-08-26T12:30:26.296Z,18.02
2022-08-26T12:33:23.082Z,14.70
2022-08-26T12:36:12.086Z,18.35
2022-08-26T12:39:30.856Z,8.60
2022-08-26T12:42:38.489Z,13.55
2022-08-26T12:45:31.364Z,15.02
2022-08-26T12:48:29.857Z,15.65
2022-08-26T12:51:25.121Z,12.73
2022-08-26T12:54:15.893Z,16.77
2022-08-26T12:57:11.830Z,14.80
2022-08-26T13:00:26.271Z,15.60
2022-08-26T13:03:33.753Z,15.65
2022-08-26T13:06:22.072Z,12.65
2022-08-26T13:09:09.262Z,18.33
2022-08-26T13:11:58.493Z,16.95
2022-08-26T13:14:46.113Z,18.50
2022-08-26T13:17:35.768Z,20.35
2022-08-26T13:20:23.217Z,16.83
2022-08-26T13:23:10.778Z,16.15
2022-08-26T13:25:59.825Z,16.30
2022-08-26T13:28:48.628Z,13.52
2022-08-26T13:31:49.394Z,14.10
2022-08-26T13:34:37.621Z,12.27
2022-08-26T13:37:34.308Z,12.38
2022-08-26T13:40:22.165Z,14.73
2022-08-26T13:43:10.926Z,9.77
2022-08-26T13:45:58.275Z,12.63
2022-08-26T13:48:45.581Z,16.27
2022-08-26T13:51:33.563Z,14.75
2022-08-26T13:54:21.125Z,16.13
2022-08-26T13:57:09.065Z,12.50
2022-08-26T13:59:58.812Z,9.98
2022-08-26T14:02:46.829Z,14.13
2022-08-26T14:05:34.177Z,13.55
2022-08-26T14:08:22.232Z,11.85
2022-08-26T14:11:09.885Z,14.05
2022-08-26T14:13:57.160Z,14.60
2022-08-26T14:16:58.966Z,18.77
2022-08-26T14:19:49.683Z,13.60
2022-08-26T14:22:43.709Z,14.00
2022-08-26T14:25:45.593Z,17.50
2022-08-26T14:28:32.861Z,16.05
2022-08-26T14:31:20.702Z,12.23
2022-08-26T14:34:08.105Z,14.38
2022-08-26T14:36:55.357Z,12.40
2022-08-26T14:39:42.725Z,17.88
2022-08-26T14:42:31.592Z,17.80
2022-08-26T14:45:23.166Z,17.00
2022-08-26T14:48:10.813Z,17.92
2022-08-26T14:50:58.091Z,18.13
2022-08-26T14:54:03.814Z,19.17
2022-08-26T14:56:54.556Z,16.33
2022-08-26T14:59:49.749Z,14.50
2022-08-26T15:02:38.756Z,14.05
2022-08-26T15:05:26.125Z,13.80
2022-08-26T15:08:13.367Z,13.48
2022-08-26T15:11:00.703Z,15.07
2022-08-26T15:13:48.172Z,13.50
2022-08-26T15:16:38.041Z,12.02
2022-08-26T15:19:26.737Z,13.50
2022-08-26T15:22:14.018Z,14.85
2022-08-26T15:25:01.851Z,12.60
2022-08-26T15:27:49.122Z,14.68
2022-08-26T15:30:36.441Z,12.65
2022-08-26T15:33:23.710Z,16.55
2022-08-26T15:36:11.526Z,15.30
2022-08-26T15:39:00.569Z,13.23
2022-08-26T15:41:47.942Z,15.02
2022-08-26T15:44:36.539Z,12.93
2022-08-26T15:47:24.285Z,12.90
2022-08-26T15:50:11.701Z,9.13
2022-08-26T15:53:01.264Z,14.02
2022-08-26T15:55:49.009Z,16.25
2022-08-26T15:58:37.038Z,13.90
2022-08-26T16:01:27.724Z,12.10
2022-08-26T16:04:15.390Z,10.85
2022-08-26T16:07:03.321Z,15.73
2022-08-26T16:09:54.248Z,10.40
2022-08-26T16:12:42.493Z,12.73
2022-08-26T16:15:32.259Z,15.80
2022-08-26T16:18:20.333Z,13.90
2022-08-26T16:21:20.324Z,12.93
2022-08-26T16:24:07.847Z,14.05
2022-08-26T16:26:55.118Z,12.90
2022-08-26T16:29:42.417Z,15.05
2022-08-26T16:32:31.353Z,13.43
2022-08-26T16:35:18.752Z,11.20
2022-08-26T16:38:06.556Z,10.50
2022-08-26T16:40:53.977Z,16.38
2022-08-26T16:43:41.301Z,13.30
2022-08-26T16:46:29.030Z,12.35
2022-08-26T16:49:16.410Z,15.02
2022-08-26T16:52:04.438Z,11.07
2022-08-26T16:54:53.014Z,14.57
2022-08-26T16:57:42.985Z,14.50
2022-08-26T17:00:32.990Z,11.55
2022-08-26T17:03:20.475Z,12.20
2022-08-26T17:06:08.385Z,11.75
2022-08-26T17:08:55.717Z,14.60
2022-08-26T17:11:43.680Z,11.52
2022-08-26T17:14:31.290Z,17.40
2022-08-26T17:17:18.557Z,17.48
2022-08-26T17:20:09.690Z,8.50
2022-08-26T17:22:57.073Z,13.50
2022-08-26T17:25:44.407Z,15.73
2022-08-26T17:28:32.217Z,13.27
2022-08-26T17:31:20.876Z,10.95
2022-08-26T17:34:08.313Z,12.35
2022-08-26T17:36:55.637Z,14.50
2022-08-26T17:39:44.049Z,15.65
2022-08-26T17:42:31.860Z,8.70
2022-08-26T17:48:08.352Z,11.13
2022-08-26T17:50:56.440Z,13.02
2022-08-26T17:53:43.773Z,9.40
2022-08-26T17:56:31.165Z,11.88
2022-08-26T17:59:18.492Z,10.65
2022-08-26T18:02:06.219Z,7.20
2022-08-26T18:04:53.462Z,10.45
2022-08-26T18:07:44.000Z,9.52
2022-08-26T18:10:32.046Z,10.05
2022-08-26T18:13:19.324Z,9.30
2022-08-26T18:16:06.836Z,9.40
2022-08-26T18:18:54.383Z,8.55
2022-08-26T18:21:41.637Z,10.55
2022-08-26T18:24:30.436Z,10.68
2022-08-26T18:27:17.692Z,9.82
2022-08-26T18:30:09.807Z,9.75
2022-08-26T18:33:00.217Z,8.77
2022-08-26T18:35:47.516Z,10.75
2022-08-26T18:38:34.825Z,11.32
2022-08-26T18:41:24.766Z,10.13
2022-08-26T18:44:14.114Z,9.80
2022-08-26T18:49:48.693Z,12.75
2022-08-26T18:52:36.282Z,12.73
2022-08-26T18:55:23.643Z,9.60
2022-08-26T18:58:11.579Z,14.77
2022-08-26T19:00:59.260Z,10.65
2022-08-26T19:03:48.033Z,11.32
2022-08-26T19:06:35.771Z,10.30
2022-08-26T19:09:26.070Z,12.48
2022-08-26T19:12:13.349Z,7.45
2022-08-26T19:15:02.438Z,8.23
2022-08-26T19:17:50.212Z,6.53
2022-08-26T19:20:46.392Z,8.88
2022-08-26T19:23:34.434Z,6.35
2022-08-26T19:26:22.047Z,7.30
2022-08-26T19:29:09.490Z,11.88
2022-08-26T19:31:56.805Z,7.90
2022-08-26T19:34:44.470Z,11.95
2022-08-26T19:37:32.715Z,8.95
2022-08-26T19:40:20.019Z,8.43
2022-08-26T19:43:08.389Z,7.95
2022-08-26T19:45:55.777Z,6.78
2022-08-26T19:48:44.433Z,9.68
2022-08-26T19:51:33.854Z,10.13
2022-08-26T19:57:11.691Z,9.82
2022-08-26T19:59:59.690Z,9.80
2022-08-26T20:02:47.469Z,9.13
2022-08-26T20:05:35.238Z,7.18
2022-08-26T20:08:22.862Z,5.60
2022-08-26T20:11:14.511Z,5.30
2022-08-26T20:14:02.142Z,12.52
2022-08-26T20:16:49.534Z,8.75
2022-08-26T20:19:55.475Z,14.45
2022-08-26T20:22:43.132Z,10.10
2022-08-26T20:25:32.473Z,7.05
2022-08-26T20:28:19.728Z,7.28
2022-08-26T20:31:06.987Z,8.45
2022-08-26T20:33:56.077Z,9.50
2022-08-26T20:36:44.496Z,10.68
2022-08-26T20:39:31.752Z,7.03
2022-08-26T20:42:20.029Z,11.02
2022-08-26T20:45:08.642Z,10.05
2022-08-26T20:47:55.905Z,8.27
2022-08-26T20:50:43.195Z,10.02
2022-08-26T20:53:31.304Z,5.82
2022-08-26T20:56:26.180Z,8.27
2022-08-26T20:59:14.126Z,6.72
2022-08-26T21:02:01.449Z,7.43
2022-08-26T21:04:48.782Z,6.93
2022-08-26T21:07:36.075Z,7.60
2022-08-26T21:10:23.511Z,7.78
2022-08-26T21:13:11.523Z,10.20
2022-08-26T21:16:02.026Z,6.28
2022-08-26T21:18:49.877Z,6.95
2022-08-26T21:21:37.477Z,6.50
2022-08-26T21:24:24.769Z,7.45
2022-08-26T21:27:12.044Z,8.05
2022-08-26T21:29:59.352Z,9.05
2022-08-26T21:32:46.641Z,7.55
2022-08-26T21:35:34.223Z,10.27
2022-08-26T21:38:22.149Z,9.63
2022-08-26T21:41:14.501Z,10.75
2022-08-26T21:44:04.067Z,5.97
2022-08-26T21:46:51.293Z,9.73
2022-08-26T21:49:38.950Z,7.75
2022-08-26T21:52:26.461Z,11.98
2022-08-26T21:55:13.751Z,9.73
2022-08-26T21:58:01.125Z,12.18
2022-08-26T22:00:49.588Z,13.18
2022-08-26T22:03:46.638Z,16.83
2022-08-26T22:06:43.132Z,13.55
2022-08-26T22:09:31.553Z,12.80
2022-08-26T22:12:18.974Z,14.43
2022-08-26T22:15:06.933Z,17.67
2022-08-26T22:17:54.169Z,20.42
2022-08-26T22:20:41.777Z,29.05
2022-08-26T22:23:29.312Z,35.03
2022-08-26T22:26:25.532Z,32.35
2022-08-26T22:29:13.581Z,35.97
2022-08-26T22:32:01.475Z,34.10
2022-08-26T22:34:48.861Z,33.22
2022-08-26T22:37:36.130Z,34.20
2022-08-26T22:40:23.530Z,28.20
2022-08-26T22:43:12.021Z,33.20
2022-08-26T22:45:59.360Z,37.22
2022-08-26T22:48:46.873Z,36.72
2022-08-26T22:51:39.236Z,54.83
2022-08-26T22:54:26.609Z,51.05
2022-08-26T22:57:13.882Z,42.38
2022-08-26T23:00:01.177Z,37.92
2022-08-26T23:02:48.449Z,38.95
2022-08-26T23:05:35.749Z,39.65
2022-08-26T23:08:24.602Z,36.30
2022-08-26T23:11:12.927Z,35.45
2022-08-26T23:14:05.035Z,38.05
2022-08-26T23:16:53.749Z,36.40
2022-08-26T23:19:41.243Z,26.88
2022-08-26T23:22:28.562Z,20.52
2022-08-26T23:25:15.905Z,17.17
2022-08-26T23:28:03.926Z,17.33
2022-08-26T23:30:51.281Z,16.15
2022-08-26T23:33:57.217Z,13.65
2022-08-26T23:36:46.318Z,14.38
2022-08-26T23:39:35.968Z,15.00
2022-08-26T23:42:23.257Z,12.45
2022-08-26T23:45:12.700Z,11.10
2022-08-26T23:51:05.919Z,12.10
2022-08-26T23:53:53.218Z,15.27
2022-08-26T23:56:40.849Z,11.38
2022-08-26T23:59:28.196Z,12.80
